Time;durP1;ratioP1;P1;durP2;ratioP2;P2;SDS_P1;SDS_P2;PMS_P1;PMS_P2;Temp;Humidity;BMP_temperature;BMP_pressure;BME280_temperature;BME280_humidity;BME280_pressure;Samples;Min_cycle;Max_cycle;Signal;HPM_P1;HPM_P2
2021/10/01 00:02:24;;;;;;;2.83;1.50;;;12.80;99.90;;;;;;5081543;28;20197;-39
2021/10/01 00:04:50;;;;;;;2.67;1.40;;;12.80;99.90;;;;;;5079677;28;20217;-40
2021/10/01 00:07:17;;;;;;;2.20;1.60;;;12.70;99.90;;;;;;5087068;28;20196;-39
2021/10/01 00:09:43;;;;;;;1.90;0.90;;;12.80;99.90;;;;;;5087046;28;20260;-39
2021/10/01 00:12:09;;;;;;;2.00;1.00;;;12.80;99.90;;;;;;5073353;28;20984;-40
2021/10/01 00:14:36;;;;;;;1.80;1.03;;;12.80;99.90;;;;;;5085906;28;20188;-39
2021/10/01 00:17:03;;;;;;;2.60;1.33;;;12.80;99.90;;;;;;5087538;28;20441;-40
2021/10/01 00:19:31;;;;;;;6.43;1.30;;;12.90;99.90;;;;;;5087334;28;20716;-39
2021/10/01 00:21:56;;;;;;;1.93;1.07;;;12.80;99.90;;;;;;5073726;28;20427;-39
2021/10/01 00:24:22;;;;;;;3.73;0.93;;;12.80;99.90;;;;;;5086794;28;20753;-44
2021/10/01 00:26:48;;;;;;;5.37;1.50;;;12.80;99.90;;;;;;5078807;28;20267;-40
2021/10/01 00:29:14;;;;;;;3.83;1.40;;;12.80;99.90;;;;;;5083838;28;20215;-39
2021/10/01 00:31:41;;;;;;;2.20;1.20;;;12.80;99.90;;;;;;5087150;28;20636;-39
2021/10/01 00:34:07;;;;;;;4.23;1.30;;;12.80;99.90;;;;;;5086380;28;20188;-40
2021/10/01 00:36:33;;;;;;;2.40;1.40;;;12.80;99.90;;;;;;5087190;28;20418;-40
2021/10/01 00:38:59;;;;;;;1.97;1.00;;;12.70;99.90;;;;;;5087293;28;20419;-39
2021/10/01 00:41:26;;;;;;;2.83;1.30;;;12.70;99.90;;;;;;5081329;28;20628;-39
2021/10/01 00:43:52;;;;;;;1.40;1.03;;;12.80;99.90;;;;;;5082384;28;20212;-40
2021/10/01 00:46:18;;;;;;;2.53;1.33;;;12.70;99.90;;;;;;5083872;28;20781;-39
2021/10/01 00:48:44;;;;;;;3.03;1.00;;;12.80;99.90;;;;;;5087323;28;20267;-39
2021/10/01 00:51:10;;;;;;;4.40;1.03;;;12.80;99.90;;;;;;5086419;28;20939;-40
2021/10/01 00:53:37;;;;;;;4.33;1.33;;;12.80;99.90;;;;;;5086277;28;20180;-40
2021/10/01 00:56:03;;;;;;;4.23;1.07;;;12.80;99.90;;;;;;5082190;28;20833;-41
2021/10/01 00:58:29;;;;;;;1.93;1.10;;;12.70;99.90;;;;;;5080162;28;20966;-41
2021/10/01 01:03:26;;;;;;;3.33;1.10;;;12.70;99.90;;;;;;5072375;28;20765;-40
2021/10/01 01:05:59;;;;;;;2.27;1.20;;;12.80;99.90;;;;;;5086539;28;20418;-40
2021/10/01 01:08:32;;;;;;;1.07;0.90;;;12.70;99.90;;;;;;5086451;28;20196;-39
2021/10/01 01:11:26;;;;;;;3.70;1.43;;;12.70;99.90;;;;;;5085485;28;20414;-39
2021/10/01 01:14:02;;;;;;;3.60;1.17;;;12.70;99.90;;;;;;5079349;28;20421;-39
2021/10/01 01:16:33;;;;;;;1.90;0.90;;;12.70;99.90;;;;;;5086214;28;20433;-39
2021/10/01 01:19:00;;;;;;;2.60;1.00;;;12.70;99.90;;;;;;5086020;28;20463;-39
2021/10/01 01:21:40;;;;;;;1.43;1.13;;;12.70;99.90;;;;;;5086557;28;20445;-39
2021/10/01 01:24:08;;;;;;;1.63;1.00;;;12.70;99.90;;;;;;5085949;28;20457;-40
2021/10/01 01:26:53;;;;;;;2.03;0.93;;;12.70;99.90;;;;;;5080417;28;20431;-41
2021/10/01 01:29:30;;;;;;;2.83;1.20;;;12.70;99.90;;;;;;5083418;28;20411;-39
2021/10/01 01:31:56;;;;;;;2.23;1.00;;;12.60;99.90;;;;;;5086425;28;20418;-39
2021/10/01 01:34:24;;;;;;;1.10;1.00;;;12.60;99.90;;;;;;5085589;28;20426;-41
2021/10/01 01:36:56;;;;;;;2.80;1.40;;;12.50;99.90;;;;;;5085877;28;20650;-39
2021/10/01 01:39:23;;;;;;;4.43;1.17;;;12.60;99.90;;;;;;5086067;28;20429;-42
2021/10/01 01:41:50;;;;;;;1.93;1.20;;;12.60;99.90;;;;;;5079249;28;20470;-39
2021/10/01 01:44:16;;;;;;;2.67;0.90;;;12.60;99.90;;;;;;5081914;28;20490;-40
2021/10/01 01:46:43;;;;;;;3.10;1.20;;;12.60;99.90;;;;;;5084685;28;20460;-40
2021/10/01 01:49:10;;;;;;;2.80;1.20;;;12.60;99.90;;;;;;5084539;28;20418;-40
2021/10/01 01:51:37;;;;;;;2.40;0.97;;;12.50;99.90;;;;;;5085807;28;20805;-40
2021/10/01 01:54:04;;;;;;;4.93;1.30;;;12.50;99.90;;;;;;5085101;28;20908;-41
2021/10/01 01:56:31;;;;;;;3.30;1.00;;;12.50;99.90;;;;;;5082399;28;20873;-39
2021/10/01 01:58:59;;;;;;;4.07;1.00;;;12.50;99.90;;;;;;5075041;28;20498;-39
2021/10/01 02:01:30;;;;;;;2.47;1.20;;;12.50;99.90;;;;;;5084667;28;20837;-40
2021/10/01 02:03:57;;;;;;;2.40;1.03;;;12.50;99.90;;;;;;5071484;28;20454;-40
2021/10/01 02:06:23;;;;;;;5.20;1.20;;;12.50;99.90;;;;;;5085588;28;20423;-39
2021/10/01 02:08:50;;;;;;;2.20;0.97;;;12.40;99.90;;;;;;5085295;28;20941;-40
2021/10/01 02:11:17;;;;;;;2.23;1.17;;;12.40;99.90;;;;;;5085908;28;20414;-39
2021/10/01 02:13:46;;;;;;;1.93;1.07;;;12.40;99.90;;;;;;5071528;28;20497;-40
2021/10/01 02:16:13;;;;;;;1.90;0.90;;;12.30;99.90;;;;;;5085490;28;20418;-40
2021/10/01 02:18:42;;;;;;;1.10;0.97;;;12.40;99.90;;;;;;5085738;28;20475;-40
2021/10/01 02:21:09;;;;;;;2.17;1.10;;;12.40;99.90;;;;;;5085329;28;20537;-39
2021/10/01 02:23:34;;;;;;;3.03;1.10;;;12.40;99.90;;;;;;5084719;28;20454;-42
2021/10/01 02:28:56;;;;;;;2.53;0.90;;;12.40;99.90;;;;;;5076289;28;20588;-39
2021/10/01 02:31:29;;;;;;;4.50;1.40;;;12.30;99.90;;;;;;5086276;28;20432;-40
2021/10/01 02:34:00;;;;;;;1.63;1.10;;;12.30;99.90;;;;;;5088667;28;20418;-39
2021/10/01 02:36:26;;;;;;;2.00;1.13;;;12.40;99.90;;;;;;5089286;28;20450;-40
2021/10/01 02:38:52;;;;;;;2.30;1.90;;;12.40;99.90;;;;;;5089505;28;20481;-39
2021/10/01 02:41:18;;;;;;;5.73;1.40;;;12.40;99.90;;;;;;5089582;28;20196;-40
2021/10/01 02:43:44;;;;;;;1.93;1.03;;;12.30;99.90;;;;;;5075905;28;20488;-41
2021/10/01 02:46:09;;;;;;;3.70;1.00;;;12.30;99.90;;;;;;5088286;28;20207;-39
2021/10/01 02:48:36;;;;;;;2.93;1.27;;;12.40;99.90;;;;;;5089181;28;20241;-39
2021/10/01 02:51:08;;;;;;;2.40;1.03;;;12.30;99.90;;;;;;5089484;28;20193;-42
2021/10/01 02:53:47;;;;;;;4.90;1.50;;;12.30;99.90;;;;;;5088763;28;20453;-40
2021/10/01 02:56:17;;;;;;;5.33;1.37;;;12.30;99.90;;;;;;5089585;28;20826;-39
2021/10/01 02:58:51;;;;;;;2.50;1.00;;;12.40;99.90;;;;;;5079541;28;20439;-39
2021/10/01 03:01:17;;;;;;;3.13;0.83;;;12.40;99.90;;;;;;5088801;28;21146;-39
2021/10/01 03:03:45;;;;;;;3.80;1.60;;;12.40;99.90;;;;;;5074500;28;20465;-40
2021/10/01 03:06:12;;;;;;;8.80;1.43;;;12.40;99.90;;;;;;5088901;28;20414;-39
2021/10/01 03:08:38;;;;;;;1.90;1.27;;;12.40;99.90;;;;;;5088664;28;20534;-40
2021/10/01 03:11:11;;;;;;;1.77;1.03;;;12.40;99.90;;;;;;5088982;28;20422;-41
2021/10/01 03:13:44;;;;;;;2.53;1.10;;;12.40;99.90;;;;;;5076049;28;20445;-40
2021/10/01 03:16:11;;;;;;;2.40;1.13;;;12.40;99.90;;;;;;5088901;28;20434;-40
2021/10/01 03:18:37;;;;;;;2.50;0.80;;;12.40;99.90;;;;;;5088600;28;20469;-40
2021/10/01 03:21:07;;;;;;;2.70;1.17;;;12.40;99.90;;;;;;5088635;28;20419;-40
2021/10/01 03:23:33;;;;;;;2.20;1.10;;;12.40;99.90;;;;;;5087863;28;20453;-40
2021/10/01 03:26:00;;;;;;;1.53;1.00;;;12.30;99.90;;;;;;5088279;28;20471;-39
2021/10/01 03:28:26;;;;;;;2.90;0.90;;;12.30;99.90;;;;;;5078510;28;20439;-40
2021/10/01 03:30:52;;;;;;;2.37;1.10;;;12.20;99.90;;;;;;5088307;28;20407;-39
2021/10/01 03:33:18;;;;;;;2.40;1.07;;;12.30;99.90;;;;;;5087909;28;20467;-39
2021/10/01 03:35:45;;;;;;;2.10;1.30;;;12.20;99.90;;;;;;5088380;28;20627;-39
2021/10/01 03:38:15;;;;;;;2.03;1.07;;;12.20;99.90;;;;;;5088839;28;20568;-40
2021/10/01 03:40:43;;;;;;;2.73;1.20;;;12.10;99.90;;;;;;5087858;28;20791;-39
2021/10/01 03:43:13;;;;;;;3.70;1.30;;;12.10;99.90;;;;;;5077506;28;21052;-39
2021/10/01 03:45:39;;;;;;;3.57;1.20;;;12.10;99.90;;;;;;5079335;28;20494;-39
2021/10/01 03:48:06;;;;;;;2.63;1.57;;;12.10;99.90;;;;;;5087425;28;20509;-40
2021/10/01 03:50:34;;;;;;;3.87;1.10;;;12.10;99.90;;;;;;5088132;28;20423;-39
2021/10/01 03:53:00;;;;;;;2.33;1.00;;;12.10;99.90;;;;;;5087373;28;20414;-39
2021/10/01 03:55:26;;;;;;;3.40;1.27;;;12.10;99.90;;;;;;5087794;28;20434;-39
2021/10/01 03:57:52;;;;;;;2.13;0.93;;;12.00;99.90;;;;;;5081116;28;20435;-39
2021/10/01 04:00:19;;;;;;;3.63;1.50;;;12.10;99.90;;;;;;5084880;28;20426;-40
2021/10/01 04:02:44;;;;;;;6.87;1.30;;;12.10;99.90;;;;;;5078953;28;20718;-40
2021/10/01 04:05:10;;;;;;;2.47;1.37;;;12.10;99.90;;;;;;5082943;28;20552;-40
2021/10/01 04:07:37;;;;;;;2.23;1.20;;;12.10;99.90;;;;;;5087388;28;20997;-39
2021/10/01 04:10:05;;;;;;;5.40;1.50;;;12.10;99.90;;;;;;5087650;28;20609;-40
2021/10/01 04:12:30;;;;;;;3.10;1.20;;;12.00;99.90;;;;;;5084557;28;20434;-39
2021/10/01 04:14:56;;;;;;;2.63;1.00;;;12.00;99.90;;;;;;5074632;28;20422;-40
2021/10/01 04:17:22;;;;;;;1.47;0.73;;;12.00;99.90;;;;;;5087526;28;20353;-39
2021/10/01 04:19:49;;;;;;;2.97;1.13;;;12.10;99.90;;;;;;5087374;28;20283;-39
2021/10/01 04:22:15;;;;;;;1.93;1.10;;;12.10;99.90;;;;;;5085836;28;20643;-40
2021/10/01 04:24:41;;;;;;;2.07;1.20;;;12.00;99.90;;;;;;5086991;28;20810;-39
2021/10/01 04:27:07;;;;;;;2.50;1.10;;;12.00;99.90;;;;;;5087738;28;20433;-40
2021/10/01 04:29:32;;;;;;;1.67;1.30;;;12.00;99.90;;;;;;5073067;28;20887;-39
2021/10/01 04:32:00;;;;;;;3.53;1.40;;;12.00;99.90;;;;;;5087148;28;20279;-39
2021/10/01 04:34:29;;;;;;;2.40;1.20;;;12.10;99.90;;;;;;5086466;28;20438;-39
2021/10/01 04:36:54;;;;;;;1.63;1.10;;;12.00;99.90;;;;;;5086734;28;20435;-40
2021/10/01 04:39:20;;;;;;;4.00;1.17;;;12.10;99.90;;;;;;5087088;28;20434;-39
2021/10/01 04:41:46;;;;;;;1.53;1.20;;;11.90;99.90;;;;;;5086970;28;20493;-39
2021/10/01 04:44:11;;;;;;;3.77;1.27;;;11.80;99.90;;;;;;5075502;28;20358;-39
2021/10/01 04:46:37;;;;;;;1.40;1.10;;;12.00;99.90;;;;;;5086055;28;20223;-39
2021/10/01 04:49:03;;;;;;;2.70;1.23;;;11.90;99.90;;;;;;5086853;28;20238;-39
2021/10/01 04:51:29;;;;;;;1.73;1.07;;;12.00;99.90;;;;;;5086607;28;20246;-39
2021/10/01 04:53:55;;;;;;;1.67;1.00;;;11.90;99.90;;;;;;5085987;28;20423;-39
2021/10/01 04:56:21;;;;;;;2.63;1.10;;;11.80;99.90;;;;;;5086708;28;20913;-39
2021/10/01 04:58:46;;;;;;;2.37;1.20;;;11.80;99.90;;;;;;5079620;28;20184;-39
2021/10/01 05:01:12;;;;;;;2.77;1.40;;;11.80;99.90;;;;;;5082774;28;20185;-39
2021/10/01 05:03:38;;;;;;;1.73;1.20;;;11.70;99.90;;;;;;5082748;28;20693;-41
2021/10/01 05:06:04;;;;;;;2.00;1.00;;;11.80;99.90;;;;;;5086526;28;20191;-40
2021/10/01 05:08:29;;;;;;;2.60;1.20;;;11.80;99.90;;;;;;5086653;28;20208;-39
2021/10/01 05:10:56;;;;;;;1.33;1.00;;;11.80;99.90;;;;;;5086640;28;20185;-39
2021/10/01 05:13:21;;;;;;;1.47;1.10;;;11.80;99.90;;;;;;5081564;28;20192;-39
2021/10/01 05:15:48;;;;;;;5.27;1.20;;;11.80;99.90;;;;;;5079316;28;20423;-39
2021/10/01 05:18:16;;;;;;;1.37;1.00;;;11.70;99.90;;;;;;5086197;28;20188;-39
2021/10/01 05:20:42;;;;;;;2.50;1.23;;;11.80;99.90;;;;;;5086376;28;20449;-40
2021/10/01 05:23:08;;;;;;;2.47;1.10;;;11.80;99.90;;;;;;5085572;28;20501;-39
2021/10/01 05:25:34;;;;;;;1.93;1.00;;;11.80;99.90;;;;;;5086376;28;20956;-39
2021/10/01 05:27:59;;;;;;;2.57;1.10;;;11.80;99.90;;;;;;5083469;28;20253;-39
2021/10/01 05:30:25;;;;;;;3.03;1.20;;;11.80;99.90;;;;;;5075849;28;20422;-40
2021/10/01 05:32:51;;;;;;;2.50;1.20;;;11.80;99.90;;;;;;5085460;28;20644;-39
2021/10/01 05:35:17;;;;;;;1.83;1.33;;;12.00;99.90;;;;;;5085781;28;20422;-40
2021/10/01 05:37:43;;;;;;;2.40;1.33;;;11.70;99.90;;;;;;5086033;28;21019;-40
2021/10/01 05:40:09;;;;;;;3.37;1.20;;;11.80;99.90;;;;;;5086350;28;20351;-39
2021/10/01 05:42:35;;;;;;;3.93;1.40;;;11.70;99.90;;;;;;5085672;28;20200;-39
2021/10/01 05:45:02;;;;;;;5.00;1.10;;;11.80;99.90;;;;;;5075229;28;20518;-39
2021/10/01 05:47:28;;;;;;;6.27;1.30;;;11.80;99.90;;;;;;5083206;28;20188;-39
2021/10/01 05:50:00;;;;;;;3.20;1.80;;;11.90;99.90;;;;;;5086137;28;20425;-39
2021/10/01 05:54:58;;;;;;;4.37;1.17;;;11.70;99.90;;;;;;5085579;28;20425;-39
2021/10/01 05:57:24;;;;;;;1.57;0.80;;;11.80;99.90;;;;;;5085565;28;20426;-39
2021/10/01 05:59:50;;;;;;;2.30;1.13;;;11.60;99.90;;;;;;5076034;28;20567;-39
2021/10/01 06:02:18;;;;;;;2.13;1.10;;;11.80;99.90;;;;;;5085139;28;20529;-40
2021/10/01 06:04:44;;;;;;;1.37;0.90;;;11.70;99.90;;;;;;5085363;28;20466;-39
2021/10/01 06:07:12;;;;;;;2.70;1.40;;;11.70;99.90;;;;;;5088389;28;20912;-39
2021/10/01 06:09:40;;;;;;;2.07;1.20;;;11.80;99.90;;;;;;5090404;28;20508;-39
2021/10/01 06:12:07;;;;;;;3.50;1.47;;;11.80;99.90;;;;;;5088602;28;20958;-39
2021/10/01 06:14:32;;;;;;;1.80;1.63;;;11.80;99.90;;;;;;5077416;28;20507;-39
2021/10/01 06:16:58;;;;;;;3.53;1.40;;;11.90;99.90;;;;;;5088331;28;20430;-39
2021/10/01 06:19:24;;;;;;;2.50;1.60;;;11.80;99.90;;;;;;5089815;28;20571;-39
2021/10/01 06:21:52;;;;;;;2.50;1.20;;;12.00;99.90;;;;;;5089503;28;20188;-39
2021/10/01 06:24:18;;;;;;;4.17;1.23;;;12.00;99.90;;;;;;5089179;28;20542;-39
2021/10/01 06:26:45;;;;;;;5.20;1.30;;;12.00;99.90;;;;;;5089285;28;20445;-40
2021/10/01 06:29:10;;;;;;;2.13;1.00;;;12.10;99.90;;;;;;5081411;28;20982;-39
2021/10/01 06:31:36;;;;;;;3.57;1.20;;;12.10;99.90;;;;;;5081536;28;20874;-39
2021/10/01 06:34:02;;;;;;;2.70;1.23;;;12.20;99.90;;;;;;5088927;28;20232;-40
2021/10/01 06:36:27;;;;;;;6.50;1.10;;;12.30;99.90;;;;;;5089131;28;20192;-39
2021/10/01 06:38:53;;;;;;;1.90;1.40;;;12.30;99.90;;;;;;5089469;28;20199;-40
2021/10/01 06:41:19;;;;;;;1.80;0.93;;;12.30;99.90;;;;;;5089311;28;20573;-39
2021/10/01 06:43:45;;;;;;;1.73;0.90;;;12.40;99.90;;;;;;5085738;28;20630;-39
2021/10/01 06:46:29;;;;;;;2.63;1.00;;;12.40;99.90;;;;;;5079547;28;20943;-41
2021/10/01 06:51:52;;;;;;;2.30;0.97;;;12.50;99.90;;;;;;5089254;28;20426;-39
2021/10/01 07:35:58;;;;;;;1.50;1.20;;;13.10;99.90;;;;;;5088265;28;20430;-40
2021/10/01 08:19:28;;;;;;;2.20;1.00;;;15.30;99.90;;;;;;5087598;28;20762;-42
2021/10/01 08:21:57;;;;;;;4.43;1.13;;;15.40;99.90;;;;;;5086993;28;20438;-40
2021/10/01 08:24:23;;;;;;;2.13;1.30;;;15.60;99.90;;;;;;5086862;28;20524;-46
2021/10/01 08:26:50;;;;;;;2.10;0.90;;;15.60;99.90;;;;;;5087302;28;20445;-40
2021/10/01 08:29:16;;;;;;;1.13;0.90;;;15.60;99.90;;;;;;5085719;28;20467;-40
2021/10/01 08:31:43;;;;;;;3.13;1.00;;;15.70;99.90;;;;;;5074194;28;20426;-39
2021/10/01 08:34:09;;;;;;;2.70;1.00;;;15.80;99.90;;;;;;5086732;28;20418;-41
2021/10/01 08:36:35;;;;;;;1.10;0.90;;;16.00;99.90;;;;;;5086959;28;20430;-40
2021/10/01 08:39:00;;;;;;;1.33;0.90;;;16.10;99.90;;;;;;5087165;28;20675;-40
2021/10/01 08:41:26;;;;;;;2.30;1.00;;;16.20;99.90;;;;;;5085722;28;20188;-40
2021/10/01 08:43:52;;;;;;;1.23;0.87;;;16.30;99.90;;;;;;5086366;28;20704;-40
2021/10/01 08:46:19;;;;;;;2.87;0.80;;;16.30;99.90;;;;;;5077062;28;20273;-40
2021/10/01 08:48:46;;;;;;;2.00;1.03;;;16.40;99.90;;;;;;5086800;28;20410;-39
2021/10/01 08:51:14;;;;;;;3.57;1.10;;;16.40;99.90;;;;;;5086752;28;20961;-40
2021/10/01 08:53:40;;;;;;;3.93;0.97;;;16.40;99.90;;;;;;5086164;28;20437;-40
2021/10/01 08:56:06;;;;;;;2.50;0.97;;;16.50;99.90;;;;;;5087022;28;20434;-40
2021/10/01 08:58:32;;;;;;;4.53;1.60;;;16.60;99.90;;;;;;5086409;28;20198;-49
2021/10/01 09:01:00;;;;;;;1.83;0.63;;;16.70;99.90;;;;;;5076446;28;20431;-40
2021/10/01 09:03:26;;;;;;;2.70;0.90;;;16.80;99.90;;;;;;5079353;28;20515;-40
2021/10/01 09:05:52;;;;;;;2.10;0.90;;;16.90;99.90;;;;;;5086902;28;20627;-41
2021/10/01 09:08:20;;;;;;;3.47;1.60;;;16.90;99.90;;;;;;5086396;28;20934;-40
2021/10/01 09:11:05;;;;;;;2.27;1.00;;;17.00;99.90;;;;;;5086443;28;20429;-41
2021/10/01 09:13:34;;;;;;;2.20;1.20;;;17.10;99.90;;;;;;5086071;28;20797;-41
2021/10/01 09:16:04;;;;;;;1.70;1.40;;;17.20;99.70;;;;;;5077257;28;20438;-41
2021/10/01 09:18:31;;;;;;;2.37;1.00;;;17.40;99.60;;;;;;5085021;28;20505;-40
2021/10/01 09:21:09;;;;;;;3.23;1.10;;;17.50;99.00;;;;;;5086536;28;20429;-40
2021/10/01 09:23:42;;;;;;;1.90;0.90;;;17.50;98.80;;;;;;5085795;28;20518;-40
2021/10/01 09:26:13;;;;;;;2.70;1.10;;;17.60;99.20;;;;;;5086167;28;20438;-41
2021/10/01 09:28:44;;;;;;;1.50;1.13;;;17.70;99.60;;;;;;5086096;28;20788;-40
2021/10/01 09:31:33;;;;;;;3.10;1.00;;;17.90;99.10;;;;;;5077444;28;20474;-40
2021/10/01 09:34:00;;;;;;;2.40;0.90;;;18.10;99.00;;;;;;5084332;28;20786;-40
2021/10/01 09:36:27;;;;;;;1.60;0.83;;;18.40;99.00;;;;;;5085966;28;20842;-39
2021/10/01 09:38:54;;;;;;;2.10;1.00;;;18.50;98.00;;;;;;5085787;28;20454;-40
2021/10/01 09:41:31;;;;;;;3.60;0.63;;;18.50;98.10;;;;;;5085468;28;20997;-40
2021/10/01 09:44:05;;;;;;;1.67;0.90;;;18.40;98.20;;;;;;5085460;28;20472;-41
2021/10/01 09:46:44;;;;;;;1.70;0.83;;;18.60;98.20;;;;;;5073164;28;20521;-40
2021/10/01 09:49:14;;;;;;;1.97;0.90;;;18.60;98.10;;;;;;5086138;28;20821;-40
2021/10/01 09:51:46;;;;;;;4.40;1.43;;;18.80;98.60;;;;;;5085780;28;20789;-40
2021/10/01 09:54:13;;;;;;;3.20;0.90;;;18.90;98.30;;;;;;5085385;28;20865;-40
2021/10/01 09:56:40;;;;;;;1.70;0.80;;;19.00;97.80;;;;;;5085967;28;20828;-41
2021/10/01 09:59:11;;;;;;;5.37;0.90;;;19.10;97.30;;;;;;5085894;28;20438;-40
2021/10/01 10:01:59;;;;;;;2.33;1.20;;;19.20;97.60;;;;;;5076070;28;20444;-40
2021/10/01 10:04:27;;;;;;;2.47;1.00;;;19.30;97.40;;;;;;5083852;28;20984;-40
2021/10/01 10:06:53;;;;;;;3.10;0.77;;;19.40;97.20;;;;;;5085566;28;20422;-45
2021/10/01 10:09:33;;;;;;;1.90;0.80;;;19.40;96.60;;;;;;5086142;28;20446;-40
2021/10/01 10:12:00;;;;;;;1.83;1.07;;;19.40;96.40;;;;;;5085410;28;20426;-40
2021/10/01 10:14:26;;;;;;;1.37;0.87;;;19.40;96.80;;;;;;5083771;28;20739;-40
2021/10/01 10:16:52;;;;;;;1.90;0.80;;;19.50;97.30;;;;;;5075929;28;20857;-44
2021/10/01 10:19:21;;;;;;;1.07;0.60;;;19.50;97.10;;;;;;5084677;28;20187;-40
2021/10/01 10:21:48;;;;;;;3.13;0.97;;;19.60;96.70;;;;;;5084258;28;20298;-40
2021/10/01 10:24:14;;;;;;;2.73;0.87;;;19.70;96.30;;;;;;5085112;28;20473;-40
2021/10/01 10:26:39;;;;;;;3.03;1.23;;;19.70;96.30;;;;;;5085941;28;20418;-41
2021/10/01 10:29:09;;;;;;;1.63;1.10;;;19.70;96.00;;;;;;5085281;28;20251;-40
2021/10/01 10:31:43;;;;;;;5.73;1.27;;;19.60;96.40;;;;;;5078570;28;20372;-41
2021/10/01 10:34:27;;;;;;;4.13;1.00;;;19.40;96.40;;;;;;5084172;28;20463;-40
2021/10/01 10:37:02;;;;;;;1.97;1.07;;;19.30;96.60;;;;;;5074626;28;20434;-44
2021/10/01 10:39:33;;;;;;;2.37;1.20;;;19.20;97.10;;;;;;5084996;28;20424;-40
2021/10/01 10:42:02;;;;;;;2.30;0.80;;;19.10;96.70;;;;;;5085654;28;20968;-41
2021/10/01 10:44:48;;;;;;;1.57;0.80;;;19.10;96.50;;;;;;5084590;28;20523;-40
2021/10/01 10:47:43;;;;;;;2.47;0.83;;;19.10;96.60;;;;;;5069636;28;20434;-40
2021/10/01 10:50:21;;;;;;;4.53;0.90;;;19.10;96.50;;;;;;5081138;28;20427;-40
2021/10/01 10:53:09;;;;;;;1.37;0.80;;;19.10;96.60;;;;;;5086423;28;20428;-41
2021/10/01 10:55:56;;;;;;;1.07;0.77;;;19.10;96.70;;;;;;5089161;28;20458;-40
2021/10/01 10:58:22;;;;;;;2.10;0.93;;;19.10;96.90;;;;;;5089107;28;21010;-40
2021/10/01 11:00:56;;;;;;;3.90;1.10;;;19.00;96.30;;;;;;5088697;28;20474;-40
2021/10/01 11:03:27;;;;;;;4.27;0.90;;;19.00;96.10;;;;;;5083435;28;20218;-41
2021/10/01 11:06:19;;;;;;;2.30;0.87;;;19.00;96.70;;;;;;5088689;28;20433;-41
2021/10/01 11:09:16;;;;;;;4.00;1.87;;;18.90;96.70;;;;;;5088163;28;20442;-41
2021/10/01 11:11:45;;;;;;;2.30;0.97;;;18.80;95.90;;;;;;5088241;28;21050;-41
2021/10/01 11:14:20;;;;;;;1.53;0.83;;;18.90;96.80;;;;;;5088269;28;20727;-41
2021/10/01 11:17:11;;;;;;;1.60;0.97;;;19.00;96.60;;;;;;5081601;28;20434;-40
2021/10/01 11:19:42;;;;;;;7.00;1.27;;;19.00;95.80;;;;;;5087774;28;20415;-40
2021/10/01 11:22:24;;;;;;;1.53;0.80;;;19.00;96.20;;;;;;5088656;28;20426;-41
2021/10/01 11:24:56;;;;;;;1.60;1.00;;;19.00;96.20;;;;;;5087998;28;20477;-40
2021/10/01 11:27:22;;;;;;;2.70;0.80;;;18.90;96.20;;;;;;5088230;28;20426;-41
2021/10/01 11:29:47;;;;;;;2.23;1.00;;;18.70;96.00;;;;;;5088725;28;20777;-41
2021/10/01 11:32:25;;;;;;;5.63;1.20;;;18.60;96.00;;;;;;5079522;28;20266;-42
2021/10/01 11:35:02;;;;;;;2.30;0.80;;;18.50;96.50;;;;;;5086505;28;20279;-40
2021/10/01 11:37:30;;;;;;;1.07;0.80;;;18.50;96.50;;;;;;5088166;28;20426;-40
2021/10/01 11:40:01;;;;;;;1.53;0.77;;;18.50;96.40;;;;;;5086707;28;20426;-41
2021/10/01 11:42:37;;;;;;;1.57;0.70;;;18.60;96.30;;;;;;5088258;28;20762;-41
2021/10/01 11:45:32;;;;;;;3.97;1.10;;;18.70;95.70;;;;;;5088199;28;20953;-40
2021/10/01 11:47:59;;;;;;;4.93;1.37;;;18.80;96.30;;;;;;5072909;28;20439;-41
2021/10/01 11:50:35;;;;;;;2.30;1.17;;;19.00;96.40;;;;;;5085913;28;20718;-40
2021/10/01 11:53:03;;;;;;;3.67;1.00;;;19.10;96.50;;;;;;5073605;28;21130;-44
2021/10/01 11:55:32;;;;;;;4.20;1.13;;;19.20;95.60;;;;;;5088324;28;20453;-40
2021/10/01 11:57:58;;;;;;;3.27;1.00;;;19.10;95.10;;;;;;5088213;28;20454;-40
2021/10/01 12:00:24;;;;;;;2.57;0.70;;;19.20;95.50;;;;;;5087994;28;20414;-41
2021/10/01 12:02:51;;;;;;;1.83;0.90;;;19.10;95.70;;;;;;5080349;28;20797;-41
2021/10/01 12:05:27;;;;;;;4.73;0.80;;;19.10;95.90;;;;;;5083252;28;20643;-40
2021/10/01 12:07:56;;;;;;;1.30;1.10;;;19.10;95.60;;;;;;5087453;28;20434;-40
2021/10/01 12:10:24;;;;;;;3.40;1.10;;;18.90;94.80;;;;;;5087842;28;20445;-40
2021/10/01 12:13:08;;;;;;;2.03;0.97;;;18.90;95.20;;;;;;5087084;28;20648;-41
2021/10/01 12:16:10;;;;;;;2.43;1.00;;;18.90;95.10;;;;;;5087926;28;20732;-41
2021/10/01 12:18:38;;;;;;;3.47;0.87;;;19.00;95.10;;;;;;5077533;28;20418;-41
2021/10/01 12:21:18;;;;;;;1.77;0.90;;;19.00;95.70;;;;;;5082014;28;20419;-41
2021/10/01 12:23:47;;;;;;;1.73;0.90;;;19.00;95.20;;;;;;5073861;28;20470;-40
2021/10/01 12:26:16;;;;;;;2.20;0.80;;;19.10;96.20;;;;;;5087641;28;20468;-41
2021/10/01 12:28:52;;;;;;;1.90;0.90;;;19.00;95.00;;;;;;5087416;28;20521;-40
2021/10/01 12:31:18;;;;;;;2.63;0.90;;;19.00;95.10;;;;;;5087233;28;20752;-40
2021/10/01 12:33:43;;;;;;;1.83;0.93;;;19.00;94.30;;;;;;5076120;28;20434;-40
2021/10/01 12:36:09;;;;;;;1.20;0.77;;;19.00;94.60;;;;;;5078319;28;20275;-40
2021/10/01 12:38:35;;;;;;;2.73;0.97;;;19.00;95.00;;;;;;5087787;28;20735;-41
2021/10/01 12:41:11;;;;;;;2.10;0.77;;;19.10;94.60;;;;;;5087220;28;20215;-40
2021/10/01 12:43:47;;;;;;;1.53;0.97;;;19.00;94.50;;;;;;5086657;28;20233;-40
2021/10/01 12:46:47;;;;;;;2.30;1.00;;;19.00;94.60;;;;;;5085243;28;20981;-41
2021/10/01 12:49:33;;;;;;;1.47;1.00;;;19.00;94.50;;;;;;5077151;28;20419;-47
2021/10/01 12:52:07;;;;;;;2.80;1.00;;;19.00;94.70;;;;;;5086837;28;20440;-48
2021/10/01 12:54:36;;;;;;;3.37;0.93;;;19.00;94.00;;;;;;5073822;28;20514;-41
2021/10/01 12:57:21;;;;;;;1.30;0.80;;;19.00;94.10;;;;;;5086190;28;20468;-43
2021/10/01 12:59:59;;;;;;;0.90;0.80;;;18.90;94.20;;;;;;5085773;28;20434;-40
2021/10/01 13:02:26;;;;;;;2.67;1.30;;;18.80;94.20;;;;;;5082378;28;20449;-41
2021/10/01 13:05:17;;;;;;;2.63;1.13;;;18.80;94.70;;;;;;5079698;28;20505;-41
2021/10/01 13:07:58;;;;;;;1.90;1.03;;;18.70;95.70;;;;;;5086645;28;20453;-42
2021/10/01 13:10:47;;;;;;;1.60;1.00;;;18.80;95.10;;;;;;5085411;28;20572;-40
2021/10/01 13:13:22;;;;;;;1.27;0.80;;;18.80;95.30;;;;;;5085782;28;20808;-40
2021/10/01 13:15:55;;;;;;;4.73;0.83;;;18.80;95.20;;;;;;5086122;28;20499;-40
2021/10/01 13:18:40;;;;;;;1.90;0.93;;;18.80;95.40;;;;;;5077537;28;20465;-40
2021/10/01 13:21:13;;;;;;;1.20;0.80;;;18.80;94.90;;;;;;5086299;28;20861;-42
2021/10/01 13:23:42;;;;;;;1.87;0.90;;;18.80;95.10;;;;;;5085258;28;20462;-40
2021/10/01 13:26:30;;;;;;;1.00;0.90;;;18.80;94.90;;;;;;5086252;28;20437;-40
2021/10/01 13:29:02;;;;;;;1.80;1.00;;;18.80;95.20;;;;;;5075735;28;20433;-41
2021/10/01 13:31:31;;;;;;;3.23;0.90;;;18.80;95.60;;;;;;5086615;28;20732;-41
2021/10/01 13:33:58;;;;;;;1.30;0.80;;;18.80;96.10;;;;;;5079483;28;20430;-41
2021/10/01 13:36:24;;;;;;;2.17;0.90;;;18.80;96.10;;;;;;5085922;28;20788;-41
2021/10/01 13:38:50;;;;;;;3.30;1.00;;;18.90;95.40;;;;;;5086113;28;20431;-40
2021/10/01 13:41:18;;;;;;;3.13;0.97;;;18.80;95.60;;;;;;5086315;28;20438;-41
2021/10/01 13:43:45;;;;;;;3.60;1.00;;;18.80;95.50;;;;;;5085372;28;20650;-40
2021/10/01 13:46:12;;;;;;;1.47;1.00;;;18.70;95.10;;;;;;5084534;28;20427;-40
2021/10/01 13:48:38;;;;;;;2.03;0.93;;;18.70;95.70;;;;;;5076959;28;20461;-40
2021/10/01 13:51:04;;;;;;;1.90;0.90;;;18.60;95.90;;;;;;5085500;28;20830;-43
2021/10/01 13:53:31;;;;;;;1.17;0.97;;;18.60;96.30;;;;;;5085699;28;20203;-40
2021/10/01 13:58:35;;;;;;;1.53;0.80;;;18.60;96.30;;;;;;5063103;28;20581;-39
2021/10/01 14:01:01;;;;;;;3.70;1.40;;;18.60;96.50;;;;;;5062764;28;20419;-39
2021/10/01 14:03:27;;;;;;;3.30;0.90;;;18.60;96.90;;;;;;5039110;28;20194;-39
2021/10/01 14:05:53;;;;;;;2.20;1.10;;;18.50;96.60;;;;;;5050713;28;20887;-39
2021/10/01 14:08:19;;;;;;;5.93;1.13;;;18.50;97.20;;;;;;5056880;28;20189;-40
2021/10/01 14:10:46;;;;;;;5.20;1.20;;;18.50;97.70;;;;;;5062644;28;20434;-41
2021/10/01 14:13:12;;;;;;;0.83;0.80;;;18.40;97.80;;;;;;5056250;28;20473;-38
2021/10/01 14:15:40;;;;;;;2.53;0.87;;;18.40;97.10;;;;;;5062649;28;20423;-40
2021/10/01 14:18:05;;;;;;;3.90;1.17;;;18.50;96.50;;;;;;5050646;28;20469;-39
2021/10/01 14:20:32;;;;;;;2.20;1.17;;;18.50;96.40;;;;;;5041148;28;20497;-39
2021/10/01 14:22:59;;;;;;;1.50;1.10;;;18.40;96.40;;;;;;5044847;28;20205;-38
2021/10/01 14:25:26;;;;;;;1.50;1.00;;;18.50;96.10;;;;;;5062705;28;20442;-39
2021/10/01 14:27:56;;;;;;;1.10;0.90;;;18.40;96.00;;;;;;5059768;28;20427;-39
2021/10/01 14:30:25;;;;;;;2.50;1.00;;;18.40;95.70;;;;;;5062615;28;20824;-40
2021/10/01 14:32:52;;;;;;;1.10;0.67;;;18.40;96.10;;;;;;5055001;28;20429;-39
2021/10/01 14:35:19;;;;;;;1.80;0.80;;;18.30;95.90;;;;;;5036140;28;20432;-39
2021/10/01 14:37:45;;;;;;;2.83;1.10;;;18.30;96.40;;;;;;5046876;28;20467;-39